Time;durP1;ratioP1;P1;durP2;ratioP2;P2;SDS_P1;SDS_P2;PMS_P1;PMS_P2;Temp;Humidity;BMP_temperature;BMP_pressure;BME280_temperature;BME280_humidity;BME280_pressure;Samples;Min_cycle;Max_cycle;Signal;HPM_P1;HPM_P2
2023/11/05 00:06:46;;;;;;;15.50;12.90;;;;;;;2.94;100.00;96870.86;430957;1274;139624;-71
2023/11/05 00:16:52;;;;;;;15.10;12.00;;;;;;;3.02;100.00;96853.85;430465;1273;139621;-70
2023/11/05 00:26:58;;;;;;;15.50;13.10;;;;;;;3.12;100.00;96829.44;430806;1270;139528;-71
2023/11/05 00:37:04;;;;;;;18.80;14.30;;;;;;;3.19;100.00;96819.88;430452;1275;140735;-71
2023/11/05 00:47:10;;;;;;;17.10;11.40;;;;;;;3.19;100.00;96811.92;430378;1271;140181;-70
2023/11/05 00:57:17;;;;;;;13.70;10.50;;;;;;;3.24;100.00;96803.27;430431;1275;139582;-71
2023/11/05 01:07:23;;;;;;;13.80;10.80;;;;;;;3.28;100.00;96788.05;430918;1273;139647;-71
2023/11/05 01:17:29;;;;;;;11.30;10.10;;;;;;;3.36;100.00;96768.98;430398;1270;140033;-73
2023/11/05 01:27:35;;;;;;;16.70;11.60;;;;;;;3.48;100.00;96761.27;431160;1270;139630;-70
2023/11/05 01:37:41;;;;;;;16.00;11.10;;;;;;;3.58;100.00;96741.23;431651;1270;139752;-71
2023/11/05 01:47:47;;;;;;;13.70;10.00;;;;;;;3.61;100.00;96737.20;431318;1270;142297;-70
2023/11/05 01:57:55;;;;;;;12.90;11.00;;;;;;;3.67;100.00;96744.69;430271;1270;140158;-71
2023/11/05 02:08:00;;;;;;;;;;;;;;;3.74;100.00;96735.09;430547;1273;139581;-71
2023/11/05 02:18:06;;;;;;;14.70;10.60;;;;;;;3.84;100.00;96718.38;430554;1275;125619;-70
2023/11/05 02:28:12;;;;;;;13.50;9.90;;;;;;;3.95;100.00;96715.73;430342;1270;140370;-70
2023/11/05 02:38:19;;;;;;;15.10;10.60;;;;;;;4.01;100.00;96744.56;429794;1275;139430;-69
2023/11/05 02:48:25;;;;;;;13.80;10.10;;;;;;;4.05;100.00;96755.81;429963;1271;139277;-70
2023/11/05 02:58:31;;;;;;;13.40;9.90;;;;;;;4.04;100.00;96750.48;429693;1274;139563;-70
2023/11/05 03:08:37;;;;;;;13.20;9.00;;;;;;;4.01;100.00;96727.03;430130;1270;139371;-70
2023/11/05 03:18:43;;;;;;;11.10;8.90;;;;;;;4.14;100.00;96722.30;430176;1270;139581;-72
2023/11/05 03:28:49;;;;;;;10.50;7.80;;;;;;;4.26;100.00;96710.92;429935;1274;140597;-72
2023/11/05 03:38:55;;;;;;;12.50;8.90;;;;;;;4.30;100.00;96685.33;430107;1270;140970;-70
2023/11/05 03:49:01;;;;;;;10.80;7.70;;;;;;;4.27;100.00;96659.96;430384;1274;139335;-70
2023/11/05 03:59:07;;;;;;;12.40;7.40;;;;;;;4.31;100.00;96682.81;430593;1270;139459;-71
2023/11/05 04:09:16;;;;;;;10.80;7.30;;;;;;;4.48;100.00;96643.29;430737;1270;139334;-71
2023/11/05 04:19:22;;;;;;;10.50;7.70;;;;;;;4.63;100.00;96620.33;431350;1270;139282;-71
2023/11/05 04:29:28;;;;;;;10.10;7.10;;;;;;;4.68;100.00;96639.15;431720;1270;139617;-71
2023/11/05 04:39:34;;;;;;;12.20;8.50;;;;;;;4.72;100.00;96649.20;431610;1275;183129;-70
2023/11/05 04:49:40;;;;;;;9.20;7.60;;;;;;;4.75;100.00;96645.43;430842;1271;139201;-70
2023/11/05 04:59:46;;;;;;;10.90;7.10;;;;;;;4.78;100.00;96648.86;430499;1270;138944;-70
2023/11/05 05:09:52;;;;;;;10.10;7.70;;;;;;;4.83;100.00;96654.15;429862;1276;139125;-70
2023/11/05 05:19:58;;;;;;;9.60;7.60;;;;;;;4.89;100.00;96638.83;431501;1270;139579;-70
2023/11/05 05:30:05;;;;;;;9.10;7.60;;;;;;;4.93;100.00;96645.67;430284;1271;139146;-70
2023/11/05 05:40:13;;;;;;;8.60;6.40;;;;;;;5.02;100.00;96638.92;429777;1275;140030;-70
2023/11/05 05:50:19;;;;;;;9.10;5.90;;;;;;;5.16;100.00;96627.64;430864;1273;140412;-70
2023/11/05 06:00:25;;;;;;;8.30;6.50;;;;;;;5.29;100.00;96628.20;430071;1271;139296;-71
2023/11/05 06:10:31;;;;;;;8.70;6.60;;;;;;;5.42;100.00;96614.13;430701;1273;141615;-68
2023/11/05 06:20:37;;;;;;;6.60;5.80;;;;;;;5.54;100.00;96603.44;430100;1274;139891;-69
2023/11/05 06:30:43;;;;;;;10.20;6.80;;;;;;;5.72;100.00;96606.33;430275;1274;139273;-69
2023/11/05 06:40:49;;;;;;;7.60;5.50;;;;;;;6.04;100.00;96604.97;429775;1274;139379;-68
2023/11/05 06:50:55;;;;;;;10.00;5.80;;;;;;;6.45;100.00;96591.81;430237;1276;271564;-69
2023/11/05 07:01:03;;;;;;;7.30;5.10;;;;;;;6.74;100.00;96572.04;430161;1271;139599;-68
2023/11/05 07:11:10;;;;;;;8.40;5.50;;;;;;;6.78;100.00;96573.44;429828;1274;139764;-68
2023/11/05 07:21:16;;;;;;;7.20;5.70;;;;;;;6.81;100.00;96567.67;430276;1275;139371;-69
2023/11/05 07:31:22;;;;;;;7.20;5.70;;;;;;;6.94;100.00;96568.56;429669;1276;139186;-69
2023/11/05 07:41:28;;;;;;;9.50;5.80;;;;;;;7.05;100.00;96555.52;429545;1276;140869;-68
2023/11/05 07:51:34;;;;;;;7.70;5.70;;;;;;;7.20;100.00;96562.41;429840;1276;139537;-69
2023/11/05 08:01:41;;;;;;;9.60;6.10;;;;;;;7.29;100.00;96558.92;429712;1273;139235;-68
2023/11/05 08:11:47;;;;;;;9.00;6.20;;;;;;;7.33;100.00;96555.02;430221;1271;139323;-69
2023/11/05 08:21:53;;;;;;;10.40;7.40;;;;;;;7.36;100.00;96561.02;430199;1276;139495;-69
2023/11/05 08:31:59;;;;;;;8.70;6.50;;;;;;;7.51;100.00;96568.05;430081;1274;139273;-69
2023/11/05 08:42:07;;;;;;;11.30;7.70;;;;;;;7.67;100.00;96579.34;430017;1275;139571;-69
2023/11/05 08:52:12;;;;;;;9.40;7.40;;;;;;;7.72;100.00;96572.57;429668;1273;140942;-69
2023/11/05 09:02:19;;;;;;;10.00;6.10;;;;;;;7.85;100.00;96569.51;430085;1275;139100;-69
2023/11/05 09:12:25;;;;;;;8.80;7.10;;;;;;;7.92;100.00;96563.60;430167;1272;139944;-70
2023/11/05 09:22:30;;;;;;;8.90;6.80;;;;;;;7.99;100.00;96565.20;430991;1273;139505;-68
2023/11/05 09:32:37;;;;;;;8.00;6.00;;;;;;;8.20;100.00;96539.89;432511;1270;139050;-68
2023/11/05 09:42:53;;;;;;;8.60;6.40;;;;;;;8.49;100.00;96520.17;431666;1274;139265;-69
2023/11/05 09:53:06;;;;;;;9.10;6.00;;;;;;;8.70;100.00;96508.09;430412;1270;139883;-69
2023/11/05 10:03:13;;;;;;;8.20;5.60;;;;;;;8.84;100.00;96503.48;429900;1276;139942;-69
2023/11/05 10:13:19;;;;;;;7.80;5.90;;;;;;;8.93;100.00;96514.57;430084;1275;139841;-70
2023/11/05 10:23:26;;;;;;;7.80;5.90;;;;;;;8.88;100.00;96525.89;430013;1277;139337;-69
2023/11/05 10:33:33;;;;;;;7.10;5.40;;;;;;;8.77;100.00;96504.39;429669;1275;139753;-68
2023/11/05 10:43:40;;;;;;;7.30;4.70;;;;;;;8.65;100.00;96484.54;429759;1276;139216;-69
2023/11/05 10:53:49;;;;;;;9.40;6.60;;;;;;;8.61;100.00;96494.36;430125;1276;139478;-70
2023/11/05 11:04:10;;;;;;;6.00;4.60;;;;;;;8.63;100.00;96493.66;429904;1273;139881;-69
2023/11/05 11:14:16;;;;;;;8.90;6.30;;;;;;;8.60;100.00;96495.91;430782;1273;141080;-69
2023/11/05 11:24:42;;;;;;;6.40;4.90;;;;;;;8.55;100.00;96494.15;430470;1271;139463;-69
2023/11/05 11:34:48;;;;;;;7.10;6.30;;;;;;;8.47;100.00;96472.08;430389;1274;139421;-69
2023/11/05 11:44:54;;;;;;;7.90;7.10;;;;;;;8.41;100.00;96458.05;430007;1274;139509;-68
2023/11/05 11:55:00;;;;;;;7.90;6.70;;;;;;;8.36;100.00;96450.91;429760;1276;141366;-69
2023/11/05 12:05:08;;;;;;;9.50;6.60;;;;;;;8.31;100.00;96450.02;429908;1270;140251;-68
2023/11/05 12:15:16;;;;;;;8.10;7.00;;;;;;;8.29;100.00;96439.48;430888;1277;139236;-59
2023/11/05 12:25:23;;;;;;;8.30;7.30;;;;;;;8.27;100.00;96437.73;431051;1276;139302;-59
2023/11/05 12:35:29;;;;;;;8.60;7.30;;;;;;;8.22;100.00;96440.02;429983;1274;140019;-59
2023/11/05 12:45:35;;;;;;;8.40;7.40;;;;;;;8.15;100.00;96438.30;429944;1274;140315;-58
2023/11/05 12:55:42;;;;;;;10.90;7.00;;;;;;;8.03;100.00;96439.52;430225;1275;139241;-59
2023/11/05 13:05:48;;;;;;;8.90;7.50;;;;;;;7.91;100.00;96432.35;437102;1273;140378;-58
2023/11/05 13:15:55;;;;;;;7.50;6.70;;;;;;;7.85;100.00;96437.39;429709;1270;139368;-63
2023/11/05 13:26:01;;;;;;;8.80;6.50;;;;;;;7.78;100.00;96435.87;429726;1276;139469;-63
2023/11/05 13:36:08;;;;;;;12.90;9.60;;;;;;;7.67;100.00;96432.21;429850;1274;139018;-63
2023/11/05 13:46:14;;;;;;;7.80;5.90;;;;;;;7.62;100.00;96434.89;430211;1274;140391;-63
2023/11/05 13:56:20;;;;;;;9.70;6.20;;;;;;;7.57;100.00;96429.77;430367;1270;141361;-63
2023/11/05 14:06:26;;;;;;;11.10;7.00;;;;;;;7.54;100.00;96440.80;430048;1270;139157;-63
2023/11/05 14:16:32;;;;;;;7.60;6.40;;;;;;;7.53;100.00;96448.11;429961;1274;139129;-63
2023/11/05 14:26:38;;;;;;;8.30;7.50;;;;;;;7.52;100.00;96444.75;429798;1270;139489;-63
2023/11/05 14:36:44;;;;;;;7.80;6.30;;;;;;;7.51;100.00;96442.59;430009;1273;140322;-64
2023/11/05 14:46:50;;;;;;;9.10;6.80;;;;;;;7.51;100.00;96433.54;430290;1270;139089;-64
2023/11/05 14:56:56;;;;;;;11.00;8.20;;;;;;;7.47;100.00;96449.27;430082;1270;139573;-63
2023/11/05 15:07:02;;;;;;;9.80;8.80;;;;;;;7.36;100.00;96466.14;430865;1274;139737;-63
2023/11/05 15:17:09;;;;;;;14.20;10.30;;;;;;;7.30;100.00;96468.69;430248;1276;141452;-63
2023/11/05 15:27:15;;;;;;;9.40;8.40;;;;;;;7.25;100.00;96480.79;432476;1269;139661;-63
2023/11/05 15:37:22;;;;;;;9.60;8.20;;;;;;;7.22;100.00;96497.96;429786;1271;138948;-63
2023/11/05 15:47:29;;;;;;;12.50;8.90;;;;;;;7.13;100.00;96504.92;430062;1270;139640;-63
2023/11/05 15:57:36;;;;;;;14.70;10.30;;;;;;;7.04;100.00;96508.15;429431;1270;139373;-62
2023/11/05 16:07:42;;;;;;;14.20;12.70;;;;;;;6.89;100.00;96514.92;429952;1270;139369;-63
2023/11/05 16:17:48;;;;;;;15.20;13.60;;;;;;;6.88;100.00;96522.89;430003;1270;139414;-63
2023/11/05 16:27:54;;;;;;;14.00;11.10;;;;;;;6.96;100.00;96529.45;430415;1270;139683;-63
2023/11/05 16:38:00;;;;;;;14.90;12.50;;;;;;;7.00;100.00;96527.10;430319;1274;139703;-63
2023/11/05 16:48:08;;;;;;;17.20;14.60;;;;;;;7.04;100.00;96524.81;430745;1273;139593;-62
2023/11/05 16:58:14;;;;;;;14.90;12.70;;;;;;;7.08;100.00;96526.51;430754;1275;139431;-63
2023/11/05 17:08:20;;;;;;;19.50;15.00;;;;;;;7.09;100.00;96529.52;429735;1272;140663;-63
2023/11/05 17:18:26;;;;;;;18.30;14.80;;;;;;;7.13;100.00;96539.06;429991;1273;139553;-63
2023/11/05 17:28:32;;;;;;;18.30;13.40;;;;;;;7.20;100.00;96550.55;429855;1274;139628;-63
2023/11/05 17:38:39;;;;;;;20.30;16.00;;;;;;;7.27;100.00;96556.11;429458;1273;140844;-63
2023/11/05 17:48:45;;;;;;;23.60;15.00;;;;;;;7.31;100.00;96558.54;430286;1273;139665;-62
2023/11/05 17:58:52;;;;;;;14.70;12.30;;;;;;;7.35;100.00;96564.97;429574;1272;141949;-63
2023/11/05 18:08:58;;;;;;;12.80;10.50;;;;;;;7.41;100.00;96573.36;428710;1273;140606;-62
2023/11/05 18:19:05;;;;;;;14.20;11.90;;;;;;;7.51;100.00;96583.93;429949;1271;139457;-63
2023/11/05 18:29:11;;;;;;;18.40;12.30;;;;;;;7.63;100.00;96584.40;430210;1272;140352;-63
2023/11/05 18:39:17;;;;;;;10.30;7.40;;;;;;;7.75;100.00;96591.27;429250;1274;140832;-63
2023/11/05 18:49:23;;;;;;;10.90;8.10;;;;;;;7.84;100.00;96609.50;429481;1273;139629;-62
2023/11/05 18:59:30;;;;;;;9.10;7.80;;;;;;;7.92;100.00;96626.98;429592;1270;144077;-63
2023/11/05 19:09:36;;;;;;;14.50;9.60;;;;;;;7.95;100.00;96635.20;429963;1273;139295;-63
2023/11/05 19:19:45;;;;;;;13.90;9.40;;;;;;;7.97;100.00;96641.09;429527;1270;139591;-63
2023/11/05 19:29:51;;;;;;;9.90;7.50;;;;;;;8.00;100.00;96657.70;429407;1270;139325;-63
2023/11/05 19:40:03;;;;;;;12.10;8.30;;;;;;;8.01;100.00;96670.19;436417;1269;140060;-64
2023/11/05 19:50:20;;;;;;;12.00;7.90;;;;;;;7.99;100.00;96680.66;433104;1270;139974;-63
2023/11/05 20:00:26;;;;;;;9.90;6.60;;;;;;;7.99;100.00;96694.60;430221;1270;139360;-63
2023/11/05 20:10:32;;;;;;;8.20;6.60;;;;;;;7.96;100.00;96707.81;429895;1270;139142;-61
2023/11/05 20:20:39;;;;;;;8.50;6.40;;;;;;;7.89;100.00;96726.82;429716;1275;140507;-65
2023/11/05 20:30:46;;;;;;;6.70;5.40;;;;;;;7.87;100.00;96739.69;429896;1271;139044;-63
2023/11/05 20:40:52;;;;;;;13.00;8.90;;;;;;;7.88;100.00;96745.30;429979;1273;139220;-63
2023/11/05 20:50:58;;;;;;;8.00;5.90;;;;;;;7.91;100.00;96761.95;429551;1270;140978;-63
2023/11/05 21:01:04;;;;;;;10.00;6.10;;;;;;;7.92;100.00;96777.22;429984;1270;139026;-64
2023/11/05 21:11:11;;;;;;;8.50;6.20;;;;;;;7.93;100.00;96792.70;429665;1274;140313;-64
2023/11/05 21:21:17;;;;;;;8.70;5.70;;;;;;;7.97;100.00;96803.10;430220;1273;139500;-63
2023/11/05 21:31:24;;;;;;;5.50;4.00;;;;;;;8.04;100.00;96822.20;429929;1275;139180;-64
2023/11/05 21:41:30;;;;;;;5.80;4.50;;;;;;;8.06;100.00;96825.60;429549;1271;139671;-63
2023/11/05 21:51:36;;;;;;;7.10;4.30;;;;;;;8.02;100.00;96837.88;430022;1275;139215;-64
2023/11/05 22:01:42;;;;;;;5.50;3.70;;;;;;;7.98;100.00;96855.08;429918;1270;140571;-63
2023/11/05 22:11:48;;;;;;;3.40;3.00;;;;;;;8.00;100.00;96874.13;429991;1270;140385;-63
2023/11/05 22:21:54;;;;;;;4.10;2.90;;;;;;;8.02;100.00;96875.52;429931;1273;141971;-63
2023/11/05 22:32:00;;;;;;;4.80;3.70;;;;;;;8.03;100.00;96891.21;430015;1270;139046;-63
2023/11/05 22:42:07;;;;;;;3.40;2.80;;;;;;;8.03;100.00;96903.45;429936;1274;139986;-63
2023/11/05 22:52:13;;;;;;;3.40;2.90;;;;;;;8.03;100.00;96914.98;430046;1270;139848;-63
2023/11/05 23:02:19;;;;;;;3.30;3.00;;;;;;;7.99;100.00;96929.09;430394;1271;140234;-62
2023/11/05 23:12:25;;;;;;;5.30;3.70;;;;;;;7.95;100.00;96934.83;429761;1274;140377;-63
2023/11/05 23:22:31;;;;;;;2.70;1.90;;;;;;;7.95;100.00;96949.33;429839;1273;139088;-63
2023/11/05 23:32:38;;;;;;;2.60;2.00;;;;;;;8.02;100.00;96963.61;430099;1271;139272;-62
2023/11/05 23:42:43;;;;;;;1.80;1.70;;;;;;;8.15;100.00;96970.80;430404;1274;139029;-63
2023/11/05 23:52:50;;;;;;;3.80;1.70;;;;;;;8.28;100.00;96987.86;430060;1274;139117;-63
